25 september 2022

Tijd Code Weer Temp. Zicht Plafond Wind METAR/SPECI
01:55
M
14 °C 6 km 2.000 ft 070° 070° 6 kt METAR LIPI 242355Z 07006KT 6000 -RA SCT005 BKN020 14/14 Q1014
00:55
M
15 °C 6 km 1.500 ft 050° 050° 6 kt METAR LIPI 242255Z 05006KT 6000 -RA SCT005 BKN015 15/14 Q1014

24 september 2022

Tijd Code Weer Temp. Zicht Plafond Wind METAR/SPECI
23:55
M
15 °C 10 km+ 1.500 ft 080° 080° 6 kt METAR LIPI 242155Z 08006KT 9999 -RA SCT010 BKN015 15/14 Q1015
22:55
V
15 °C 10 km+ 8.000 ft 010° 010° 2 kt METAR LIPI 242055Z 01002KT 9999 SCT050 BKN080 15/12 Q1015 RMK OVC VIS MIN 9999 WIND THR06 05003KT WIND THR24 04003KT BLU
21:55
V
15 °C 10 km+ 7.000 ft 340° 340° 2 kt METAR LIPI 241955Z 34002KT 9999 SCT050 BKN070 15/13 Q1015
20:55
V
16 °C 10 km+ 8.000 ft 360° 360° 3 kt METAR LIPI 241855Z 36003KT 9999 SCT050 BKN080 16/14 Q1015
19:55
V
16 °C 10 km+ 8.000 ft 330° 330° 4 kt METAR LIPI 241755Z 33004KT 9999 SCT050 BKN080 16/14 Q1015
18:55
V
17 °C 10 km+ 6.000 ft 320° 320° 3 kt METAR LIPI 241655Z 32003KT 9999 FEW025 SCT050 BKN060 17/14 Q1015
17:55
V
18 °C 10 km+ 6.000 ft 080° 080° 4 kt METAR LIPI 241555Z 08004KT 9999 FEW025 SCT050 BKN060 18/15 Q1015
16:55
V
19 °C 10 km+ 6.000 ft 360° 360° 3 kt METAR LIPI 241455Z 36003KT 9999 FEW025 SCT050 BKN060 19/13 Q1015
15:55
V
19 °C 10 km+ 7.000 ft 030° 030° 5 kt METAR LIPI 241355Z 03005KT 9999 -RA FEW025 SCT050 BKN070 19/14 Q1015 RMK OVC VIS MIN 9999 WIND THR06 06005KT WIND THR24 04004KT BLU
14:55
V
19 °C 10 km+ 7.000 ft 010° 010° 6 kt METAR LIPI 241255Z 01006KT 9999 SCT050 BKN070 19/14 Q1016 RMK OVC VIS MIN 9999 WIND THR06 05005KT WIND THR24 02004KT BLU
13:55
V
18 °C 10 km+ 7.000 ft 350° 350° 5 kt METAR LIPI 241155Z 35005KT 9999 SCT050 BKN070 18/14 Q1016
12:55
V
18 °C 10 km+ 7.000 ft 010° 010° 5 kt METAR LIPI 241055Z 01005KT 9999 SCT050 BKN070 18/14 Q1017 RMK OVC VIS MIN 9999 WIND THR06 06006KT WIND THR24 03005KT BLU
11:55
V
18 °C 10 km+ 7.000 ft 040° 040° 5 kt METAR LIPI 240955Z 04005KT 9999 SCT050 BKN070 18/14 Q1017
10:55
V
17 °C 10 km+ 8.000 ft 020° 020° 4 kt METAR LIPI 240855Z 02004KT 9999 SCT050 BKN080 17/13 Q1017 RMK OVC VIS MIN 9999 WIND THR06 07005KT WIND THR24 04004KT BLU
09:55
V
16 °C 10 km+ 7.000 ft 360° 360° 4 kt METAR LIPI 240755Z 36004KT 9999 SCT050 BKN070 16/13 Q1017
08:55
V
15 °C 10 km+ 5.000 ft 030° 030° 3 kt METAR LIPI 240655Z 03003KT 9999 BKN050 SCT060 15/12 Q1016 RMK OVC VIS MIN 9999 WIND THR06 07003KT WIND THR24 05003KT BLU
07:55
V
14 °C 10 km+ 7.000 ft 360° 360° 3 kt METAR LIPI 240555Z 36003KT 9999 FEW050 OVC070 14/12 Q1016 RMK OVC VIS MIN 9999 WIND THR06 04004KT WIND THR24 03003KT BLU
06:55
V
13 °C 10 km+ 7.000 ft 020° 020° 3 kt METAR LIPI 240455Z 02003KT 9999 FEW040 OVC070 13/12 Q1016
05:55
V
13 °C 10 km+ 7.000 ft 020° 020° 3 kt METAR LIPI 240355Z 02003KT 9999 OVC070 13/11 Q1016
04:55
V
14 °C 10 km+ 7.000 ft 040° 040° 4 kt METAR LIPI 240255Z 04004KT 9999 OVC070 14/11 Q1016
03:55
V
13 °C 10 km+ 7.000 ft 040° 040° 3 kt METAR LIPI 240155Z 04003KT 9999 OVC070 13/11 Q1017
02:55
V
13 °C 10 km+ 7.000 ft 020° 020° 2 kt METAR LIPI 240055Z 02002KT 9999 OVC070 13/11 Q1017 RMK OVC VIS MIN 9999 WIND THR06 05003KTG WIND THR24 05002KT BLU
01:55
V
14 °C 10 km+ 6.800 ft 030° 030° 4 kt METAR LIPI 232355Z 03004KT 9999 BKN068 14/12 Q1018
00:55
V
14 °C 10 km+ 6.500 ft 040° 040° 3 kt METAR LIPI 232255Z 04003KT 9999 BKN065 14/11 Q1018

23 september 2022

Tijd Code Weer Temp. Zicht Plafond Wind METAR/SPECI
23:55
V
14 °C 10 km+ 6.200 ft 030° 030° 2 kt METAR LIPI 232155Z 03002KT 9999 BKN062 14/11 Q1018
22:55
V
15 °C 10 km+ 6.000 ft 040° 040° 3 kt METAR LIPI 232055Z 04003KT 9999 BKN060 15/11 Q1018
21:55
V
14 °C 10 km+ 6.000 ft 290° 290° 2 kt METAR LIPI 231955Z 29002KT 9999 FEW050 BKN060 14/12 Q1018 RMK BKN VIS MIN 9999 WIND THR06 33002KT WIND THR24 35002KT 35003KT BLU
20:55
V
14 °C 10 km+ - 170° 170° 1 kt METAR LIPI 231855Z 17001KT 9999 SCT060 14/11 Q1018
19:55
V
15 °C 10 km+ - 080° 080° 2 kt METAR LIPI 231755Z 08002KT 9999 SCT070 15/11 Q1018
18:55
V
18 °C 10 km+ 7.000 ft 120° 120° 4 kt METAR LIPI 231655Z 12004KT 9999 BKN070 18/12 Q1018 RMK BKN VIS MIN 9999 WIND THR06 14004KT WIND THR24 13004KT BLU
17:55
V
18 °C 10 km+ 6.000 ft 110° 110° 4 kt METAR LIPI 231555Z 11004KT 9999 BKN060 18/11 Q1018 RMK BKN VIS MIN 9999 WIND THR06 16005KT WIND THR24 13005KT BLU
16:55
V
19 °C 10 km+ 6.000 ft 140° 140° 6 kt METAR LIPI 231455Z 14006KT 9999 BKN060 19/10 Q1018 RMK BKN VIS MIN 9999 WIND THR06 17007KT WIND THR24 16005KT BLU
15:55
V
19 °C 10 km+ 5.000 ft 170° 170° 7 kt METAR LIPI 231355Z 17007KT 9999 BKN050 19/10 Q1019
14:55
V
19 °C 10 km+ - 200° 200° 5 kt METAR LIPI 231255Z 20005KT 9999 SCT050 19/09 Q1019
13:55
V
19 °C 10 km+ - 230° 230° 5 kt METAR LIPI 231155Z 23005KT 9999 SCT050 19/09 Q1020
12:55
V
19 °C 10 km+ - 190° 190° 7 kt METAR LIPI 231055Z 19007KT CAVOK 19/09 Q1020
11:55
V
19 °C 10 km+ - 130° 130° 3 kt METAR LIPI 230955Z 13003KT CAVOK 19/09 Q1020
10:55
V
17 °C 10 km+ - 050° 050° 3 kt METAR LIPI 230855Z 05003KT CAVOK 17/09 Q1020 RMK SKC VIS MIN 9999 WIND THR06 09004KT WIND THR24 08004KT BLU
09:55
V
15 °C 10 km+ - 020° 020° 5 kt METAR LIPI 230755Z 02005KT CAVOK 15/10 Q1020
08:55
V
13 °C 10 km+ - 360° 360° 6 kt METAR LIPI 230655Z 36006KT CAVOK 13/10 Q1020
07:55
V
9 °C 10 km+ - 360° 360° 4 kt METAR LIPI 230555Z 36004KT CAVOK 09/08 Q1020
06:55
V
8 °C 10 km+ - 350° 350° 4 kt METAR LIPI 230455Z 35004KT CAVOK 08/06 Q1020 RMK SKC VIS MIN 9999 WIND THR0603004KT WIND THR24 01002KT BLU
05:55
V
9 °C 10 km+ - 330° 330° 4 kt METAR LIPI 230355Z 33004KT 9999 SCT100 09/07 Q1021
04:55
V
9 °C 10 km+ - 340° 340° 4 kt METAR LIPI 230255Z 34004KT 9999 SCT066 09/07 Q1021
03:55
V
8 °C 10 km+ - 360° 360° 4 kt METAR LIPI 230155Z 36004KT CAVOK 08/07 Q1021
02:55
V
9 °C 10 km+ - 360° 360° 1 kt METAR LIPI 230055Z 36001KT CAVOK 09/07 Q1021 RMK SKC VIS MIN 9999 WIND THR06 04007KT WIND THR24 02005KT BLU
01:55
V
10 °C 10 km+ - 360° 360° 4 kt METAR LIPI 222355Z 36004KT CAVOK 10/08 Q1022
00:55
V
9 °C 10 km+ - 010° 010° 3 kt METAR LIPI 222255Z 01003KT 9999 FEW100 09/08 Q1021

22 september 2022

Tijd Code Weer Temp. Zicht Plafond Wind METAR/SPECI
23:55
V
9 °C 10 km+ - 020° 020° 4 kt METAR LIPI 222155Z 02004KT 9999 FEW100 09/08 Q1021
22:55
V
11 °C 10 km+ - 010° 010° 2 kt METAR LIPI 222055Z 01002KT CAVOK 11/09 Q1021
21:55
V
11 °C 10 km+ - 020° 020° 3 kt METAR LIPI 221955Z 02003KT CAVOK 11/09 Q1021
20:55
V
12 °C 10 km+ - 320° 320° 1 kt METAR LIPI 221855Z 32001KT CAVOK 12/10 Q1020 RMK SKC VIS MIN 9999 WIND THR06 33002KT WIND THR24 35002KT BLU
19:55
V
14 °C 10 km+ - 280° 280° 1 kt METAR LIPI 221755Z 28001KT 9999 FEW070 14/09 Q1020 RMK FEW VIS MIN 9999 WIND THR06 32001KT WIND THR24 30002KT BLU
18:55
V
17 °C 10 km+ - 200° 200° 1 kt METAR LIPI 221655Z 20001KT 9999 SCT060 17/07 Q1019 RMK SCT VIS MIN 9999 WIND THR06 24001KT WIND THR24 22002KT BLU
17:55
V
19 °C 10 km+ - 180° 180° 3 kt METAR LIPI 221555Z 18003KT 9999 SCT050 19/07 Q1019 RMK SCT VIS MIN 9999 WIND THR06 19003KT WIND THR24 21004KT BLU
16:55
V
20 °C 10 km+ - 230° 230° 3 kt METAR LIPI 221455Z 23003KT 9999 SCT050 20/07 Q1019 RMK SCT VIS MIN 9999 WIND THR06 23005KT WIND THR24 24004KT BLU
Oudere gegevens

Met cookies volgen wij en derde partijen jouw internetgedrag binnen onze site. Als je verdergaat gaan we ervan uit dat je dit goedvindt. Meer info